Starke, FL

9:36 AM EST on March 05, 2015 (GMT -0500)
Keystone Airpark, Keystone He | Change Station
CLOSE
Current Station
Airport
Location: Keystone Airpark, Keystone He,
Elevation: 197 ft
Nearby Weather Stations

Elev 197 ft 29.84 °N, 82.05 °W | Updated 21 minutes ago

Mostly Cloudy
Mostly Cloudy
70 °F
Feels Like 70 °F
N
12
Wind Variable Wind from South
Gusts 18 mph

Today
High -- | Low -- °F
--% Chance of Precip.
Yesterday
High -- | Low -- °F
Precip. -- in
6:50 AM 6:29 PM
Full, 100% visible
Pressure 30.13 in
Visibility 5.0 miles
Clouds Overcast 800 ft
Dew Point 68 °F
Humidity 94%
Rainfall 0.00 in
Snow Depth Not available.
UV 1 out of 12
Pollen 10.50 out of 12
Air Quality Not available.
Flu Activity Not available.
METAR K42J 051415Z AUTO 19010G16KT 5SM OVC008 21/20 A3013 RMK AO1 TSNO

More Conditions Fewer Conditions

Pressure 30.13 in
Visibility 5.0 miles
Clouds Overcast 800 ft
Dew Point 68 °F
Humidity 94%
Rainfall 0.00 in
Snow Depth Not available.
UV 1 out of 12
Pollen 10.50 out of 12
Air Quality Not available.
Flu Activity Not available.
METAR K42J 051415Z AUTO 19010G16KT 5SM OVC008 21/20 A3013 RMK AO1 TSNO

More Conditions Fewer Conditions

10-Day Weather Forecast

Almanac

Astronomy

Mar. 05, 2015 Rise Set
Actual Time
Civil Twilight
Nautical Twilight
Astronomical Twilight
Moon
Length of Visible Light
Length of Day
Tomorrow will be .
, % of the Moon is Illuminated

Today's Extremes

State Highs State Lows

Community

WunderPhotos

Upload Photos

1,802,782 photos uploaded!

WunderBlogs® & News

Nearby

Air Quality

  Air Quality AQ Index Pollutant
Not available.

Snow Depth

Station Depth Elevation

Earthquake Activity

City Distance Mag. Time & Date
Minimum magnitude displayed is 2.5.

Coastal Water Temperatures

Place Temperature

Nearby Weather Stations